sensor_id;sensor_type;location;lat;lon;timestamp;P1;durP1;ratioP1;P2;durP2;ratioP2
69419;SDS011;56612;52.030;113.524;2023-04-06T00:02:32;7.25;;;0.93;;
69419;SDS011;56612;52.030;113.524;2023-04-06T00:05:36;8.13;;;0.70;;
69419;SDS011;56612;52.030;113.524;2023-04-06T00:08:40;8.87;;;1.20;;
69419;SDS011;56612;52.030;113.524;2023-04-06T00:11:44;7.88;;;0.88;;
69419;SDS011;56612;52.030;113.524;2023-04-06T00:14:47;4.88;;;0.90;;
69419;SDS011;56612;52.030;113.524;2023-04-06T00:17:50;7.95;;;1.00;;
69419;SDS011;56612;52.030;113.524;2023-04-06T00:20:54;11.55;;;1.02;;
69419;SDS011;56612;52.030;113.524;2023-04-06T00:23:59;2.97;;;0.60;;
69419;SDS011;56612;52.030;113.524;2023-04-06T00:27:02;7.07;;;0.75;;
69419;SDS011;56612;52.030;113.524;2023-04-06T00:30:06;12.45;;;1.27;;
69419;SDS011;56612;52.030;113.524;2023-04-06T00:33:10;3.80;;;0.50;;
69419;SDS011;56612;52.030;113.524;2023-04-06T00:36:14;4.47;;;0.52;;
69419;SDS011;56612;52.030;113.524;2023-04-06T00:39:17;13.97;;;1.77;;
69419;SDS011;56612;52.030;113.524;2023-04-06T00:42:22;36.38;;;2.60;;
69419;SDS011;56612;52.030;113.524;2023-04-06T00:45:29;2.63;;;0.47;;
69419;SDS011;56612;52.030;113.524;2023-04-06T00:48:33;5.55;;;0.90;;
69419;SDS011;56612;52.030;113.524;2023-04-06T00:51:37;2.83;;;0.43;;
69419;SDS011;56612;52.030;113.524;2023-04-06T00:54:40;7.70;;;0.87;;
69419;SDS011;56612;52.030;113.524;2023-04-06T00:57:45;5.32;;;1.10;;
69419;SDS011;56612;52.030;113.524;2023-04-06T01:00:50;1.77;;;0.40;;
69419;SDS011;56612;52.030;113.524;2023-04-06T01:03:56;8.68;;;0.80;;
69419;SDS011;56612;52.030;113.524;2023-04-06T01:07:00;7.07;;;0.73;;
69419;SDS011;56612;52.030;113.524;2023-04-06T01:10:24;6.20;;;1.13;;
69419;SDS011;56612;52.030;113.524;2023-04-06T01:13:38;7.70;;;0.68;;
69419;SDS011;56612;52.030;113.524;2023-04-06T01:16:50;4.22;;;0.75;;
69419;SDS011;56612;52.030;113.524;2023-04-06T01:19:59;2.72;;;0.47;;
69419;SDS011;56612;52.030;113.524;2023-04-06T01:23:05;1.88;;;0.50;;
69419;SDS011;56612;52.030;113.524;2023-04-06T01:26:12;10.43;;;1.57;;
69419;SDS011;56612;52.030;113.524;2023-04-06T01:29:19;3.45;;;0.70;;
69419;SDS011;56612;52.030;113.524;2023-04-06T01:32:23;5.35;;;0.60;;
69419;SDS011;56612;52.030;113.524;2023-04-06T01:35:27;16.25;;;1.10;;
69419;SDS011;56612;52.030;113.524;2023-04-06T01:38:45;4.60;;;0.40;;
69419;SDS011;56612;52.030;113.524;2023-04-06T01:41:51;4.27;;;0.50;;
69419;SDS011;56612;52.030;113.524;2023-04-06T01:44:56;8.10;;;1.15;;
69419;SDS011;56612;52.030;113.524;2023-04-06T01:48:00;4.53;;;0.70;;
69419;SDS011;56612;52.030;113.524;2023-04-06T01:51:04;4.93;;;0.50;;
69419;SDS011;56612;52.030;113.524;2023-04-06T01:54:15;6.57;;;0.55;;
69419;SDS011;56612;52.030;113.524;2023-04-06T01:57:30;19.53;;;2.20;;
69419;SDS011;56612;52.030;113.524;2023-04-06T02:00:42;4.27;;;0.60;;
69419;SDS011;56612;52.030;113.524;2023-04-06T02:03:46;13.90;;;0.95;;
69419;SDS011;56612;52.030;113.524;2023-04-06T02:06:50;10.85;;;1.38;;
69419;SDS011;56612;52.030;113.524;2023-04-06T02:09:56;5.70;;;0.70;;
69419;SDS011;56612;52.030;113.524;2023-04-06T02:13:08;9.67;;;1.30;;
69419;SDS011;56612;52.030;113.524;2023-04-06T02:16:12;18.53;;;1.43;;
69419;SDS011;56612;52.030;113.524;2023-04-06T02:19:19;9.30;;;0.80;;
69419;SDS011;56612;52.030;113.524;2023-04-06T02:22:22;13.82;;;1.20;;
69419;SDS011;56612;52.030;113.524;2023-04-06T02:25:25;8.95;;;0.82;;
69419;SDS011;56612;52.030;113.524;2023-04-06T02:28:28;6.70;;;1.57;;
69419;SDS011;56612;52.030;113.524;2023-04-06T02:31:31;9.67;;;0.90;;
69419;SDS011;56612;52.030;113.524;2023-04-06T02:34:36;9.40;;;0.93;;
69419;SDS011;56612;52.030;113.524;2023-04-06T02:37:40;5.72;;;0.73;;
69419;SDS011;56612;52.030;113.524;2023-04-06T02:40:44;11.70;;;1.20;;
69419;SDS011;56612;52.030;113.524;2023-04-06T02:43:55;5.47;;;0.70;;
69419;SDS011;56612;52.030;113.524;2023-04-06T02:47:09;14.27;;;1.70;;
69419;SDS011;56612;52.030;113.524;2023-04-06T02:50:15;4.07;;;0.63;;
69419;SDS011;56612;52.030;113.524;2023-04-06T02:53:28;4.30;;;0.60;;
69419;SDS011;56612;52.030;113.524;2023-04-06T02:56:31;20.52;;;2.22;;
69419;SDS011;56612;52.030;113.524;2023-04-06T02:59:35;9.40;;;1.33;;
69419;SDS011;56612;52.030;113.524;2023-04-06T03:03:01;15.87;;;1.00;;
69419;SDS011;56612;52.030;113.524;2023-04-06T03:06:05;5.68;;;1.33;;
69419;SDS011;56612;52.030;113.524;2023-04-06T03:09:09;7.53;;;0.98;;
69419;SDS011;56612;52.030;113.524;2023-04-06T03:12:16;14.63;;;1.25;;
69419;SDS011;56612;52.030;113.524;2023-04-06T03:15:38;7.60;;;1.33;;
69419;SDS011;56612;52.030;113.524;2023-04-06T03:18:48;6.27;;;0.77;;
69419;SDS011;56612;52.030;113.524;2023-04-06T03:21:52;8.20;;;1.10;;
69419;SDS011;56612;52.030;113.524;2023-04-06T03:24:58;3.42;;;0.70;;
69419;SDS011;56612;52.030;113.524;2023-04-06T03:28:05;16.60;;;1.10;;
69419;SDS011;56612;52.030;113.524;2023-04-06T03:31:16;7.27;;;0.80;;
69419;SDS011;56612;52.030;113.524;2023-04-06T03:34:32;10.10;;;1.07;;
69419;SDS011;56612;52.030;113.524;2023-04-06T03:37:36;20.52;;;1.42;;
69419;SDS011;56612;52.030;113.524;2023-04-06T03:40:40;4.18;;;0.70;;
69419;SDS011;56612;52.030;113.524;2023-04-06T03:43:44;17.95;;;1.52;;
69419;SDS011;56612;52.030;113.524;2023-04-06T03:46:47;3.63;;;0.87;;
69419;SDS011;56612;52.030;113.524;2023-04-06T03:49:52;10.07;;;1.13;;
69419;SDS011;56612;52.030;113.524;2023-04-06T03:52:55;9.63;;;1.63;;
69419;SDS011;56612;52.030;113.524;2023-04-06T03:55:59;7.07;;;0.95;;
69419;SDS011;56612;52.030;113.524;2023-04-06T03:59:05;7.70;;;1.23;;
69419;SDS011;56612;52.030;113.524;2023-04-06T04:02:10;11.83;;;1.60;;
69419;SDS011;56612;52.030;113.524;2023-04-06T04:05:13;7.17;;;1.40;;
69419;SDS011;56612;52.030;113.524;2023-04-06T04:08:17;5.90;;;0.98;;
69419;SDS011;56612;52.030;113.524;2023-04-06T04:11:21;10.10;;;1.52;;
69419;SDS011;56612;52.030;113.524;2023-04-06T04:14:31;6.00;;;1.40;;
69419;SDS011;56612;52.030;113.524;2023-04-06T04:17:35;16.97;;;1.70;;
69419;SDS011;56612;52.030;113.524;2023-04-06T04:20:39;4.20;;;1.20;;
69419;SDS011;56612;52.030;113.524;2023-04-06T04:23:44;7.22;;;0.98;;
69419;SDS011;56612;52.030;113.524;2023-04-06T04:26:48;10.13;;;1.50;;
69419;SDS011;56612;52.030;113.524;2023-04-06T04:29:53;20.42;;;2.58;;
69419;SDS011;56612;52.030;113.524;2023-04-06T04:32:56;19.93;;;1.97;;
69419;SDS011;56612;52.030;113.524;2023-04-06T04:35:59;7.83;;;1.07;;
69419;SDS011;56612;52.030;113.524;2023-04-06T04:39:10;16.25;;;1.45;;
69419;SDS011;56612;52.030;113.524;2023-04-06T04:42:18;13.07;;;1.80;;
69419;SDS011;56612;52.030;113.524;2023-04-06T04:45:25;9.18;;;1.40;;
69419;SDS011;56612;52.030;113.524;2023-04-06T04:48:29;4.87;;;1.03;;
69419;SDS011;56612;52.030;113.524;2023-04-06T04:51:36;5.30;;;1.33;;
69419;SDS011;56612;52.030;113.524;2023-04-06T04:54:58;9.13;;;1.15;;
69419;SDS011;56612;52.030;113.524;2023-04-06T04:58:03;17.80;;;1.90;;
69419;SDS011;56612;52.030;113.524;2023-04-06T05:01:20;9.13;;;1.58;;
69419;SDS011;56612;52.030;113.524;2023-04-06T05:04:24;22.93;;;1.87;;
69419;SDS011;56612;52.030;113.524;2023-04-06T05:07:32;7.57;;;1.00;;
69419;SDS011;56612;52.030;113.524;2023-04-06T05:10:37;11.98;;;1.67;;
69419;SDS011;56612;52.030;113.524;2023-04-06T05:13:42;28.20;;;2.50;;
69419;SDS011;56612;52.030;113.524;2023-04-06T05:16:50;13.80;;;1.30;;
69419;SDS011;56612;52.030;113.524;2023-04-06T05:19:57;9.53;;;1.27;;
69419;SDS011;56612;52.030;113.524;2023-04-06T05:23:03;5.90;;;1.57;;
69419;SDS011;56612;52.030;113.524;2023-04-06T05:26:08;12.57;;;2.33;;
69419;SDS011;56612;52.030;113.524;2023-04-06T05:29:12;15.13;;;1.30;;
69419;SDS011;56612;52.030;113.524;2023-04-06T05:32:15;10.80;;;1.65;;
69419;SDS011;56612;52.030;113.524;2023-04-06T05:35:19;5.60;;;1.07;;
69419;SDS011;56612;52.030;113.524;2023-04-06T05:38:26;9.87;;;1.47;;
69419;SDS011;56612;52.030;113.524;2023-04-06T05:41:35;7.65;;;1.60;;
69419;SDS011;56612;52.030;113.524;2023-04-06T05:44:40;10.55;;;1.30;;
69419;SDS011;56612;52.030;113.524;2023-04-06T05:47:48;5.13;;;1.27;;
69419;SDS011;56612;52.030;113.524;2023-04-06T05:50:58;8.67;;;1.50;;
69419;SDS011;56612;52.030;113.524;2023-04-06T05:54:12;14.20;;;2.37;;
69419;SDS011;56612;52.030;113.524;2023-04-06T05:57:16;7.20;;;1.20;;
69419;SDS011;56612;52.030;113.524;2023-04-06T06:00:22;9.23;;;1.73;;
69419;SDS011;56612;52.030;113.524;2023-04-06T06:03:35;13.45;;;1.52;;
69419;SDS011;56612;52.030;113.524;2023-04-06T06:06:40;7.27;;;1.70;;
69419;SDS011;56612;52.030;113.524;2023-04-06T06:10:07;16.80;;;5.30;;
69419;SDS011;56612;52.030;113.524;2023-04-06T06:13:11;6.68;;;1.05;;
69419;SDS011;56612;52.030;113.524;2023-04-06T06:16:15;5.57;;;1.00;;
69419;SDS011;56612;52.030;113.524;2023-04-06T06:19:22;10.48;;;2.60;;
69419;SDS011;56612;52.030;113.524;2023-04-06T06:22:29;14.00;;;2.60;;
69419;SDS011;56612;52.030;113.524;2023-04-06T06:25:33;9.33;;;1.60;;
69419;SDS011;56612;52.030;113.524;2023-04-06T06:28:38;8.27;;;1.40;;
69419;SDS011;56612;52.030;113.524;2023-04-06T06:31:45;18.15;;;2.72;;
69419;SDS011;56612;52.030;113.524;2023-04-06T06:34:48;9.55;;;2.10;;
69419;SDS011;56612;52.030;113.524;2023-04-06T06:37:53;4.90;;;1.40;;
69419;SDS011;56612;52.030;113.524;2023-04-06T06:40:59;4.40;;;1.50;;
69419;SDS011;56612;52.030;113.524;2023-04-06T06:44:06;4.07;;;1.17;;
69419;SDS011;56612;52.030;113.524;2023-04-06T06:47:09;9.88;;;2.17;;
69419;SDS011;56612;52.030;113.524;2023-04-06T06:50:13;6.88;;;2.47;;
69419;SDS011;56612;52.030;113.524;2023-04-06T06:53:17;15.20;;;1.67;;
69419;SDS011;56612;52.030;113.524;2023-04-06T06:56:21;4.83;;;1.60;;
69419;SDS011;56612;52.030;113.524;2023-04-06T06:59:27;17.77;;;2.25;;
69419;SDS011;56612;52.030;113.524;2023-04-06T07:02:31;4.90;;;1.33;;
69419;SDS011;56612;52.030;113.524;2023-04-06T07:05:34;22.55;;;2.45;;
69419;SDS011;56612;52.030;113.524;2023-04-06T07:08:40;9.43;;;1.70;;
69419;SDS011;56612;52.030;113.524;2023-04-06T07:11:43;15.50;;;2.37;;
69419;SDS011;56612;52.030;113.524;2023-04-06T07:14:47;10.48;;;1.48;;
69419;SDS011;56612;52.030;113.524;2023-04-06T07:17:51;19.27;;;2.10;;
69419;SDS011;56612;52.030;113.524;2023-04-06T07:20:58;8.60;;;1.90;;
69419;SDS011;56612;52.030;113.524;2023-04-06T07:24:01;8.07;;;1.80;;
69419;SDS011;56612;52.030;113.524;2023-04-06T07:27:04;10.77;;;1.63;;
69419;SDS011;56612;52.030;113.524;2023-04-06T07:30:08;7.20;;;1.08;;
69419;SDS011;56612;52.030;113.524;2023-04-06T07:33:11;12.13;;;2.13;;
69419;SDS011;56612;52.030;113.524;2023-04-06T07:36:16;6.57;;;1.77;;
69419;SDS011;56612;52.030;113.524;2023-04-06T07:39:20;5.80;;;1.40;;
69419;SDS011;56612;52.030;113.524;2023-04-06T07:42:23;6.13;;;1.17;;
69419;SDS011;56612;52.030;113.524;2023-04-06T07:45:26;8.15;;;1.20;;
69419;SDS011;56612;52.030;113.524;2023-04-06T07:48:31;9.65;;;1.30;;
69419;SDS011;56612;52.030;113.524;2023-04-06T07:51:38;14.27;;;2.00;;
69419;SDS011;56612;52.030;113.524;2023-04-06T07:54:42;16.50;;;2.07;;
69419;SDS011;56612;52.030;113.524;2023-04-06T07:57:46;14.43;;;3.63;;
69419;SDS011;56612;52.030;113.524;2023-04-06T08:00:50;14.13;;;3.05;;
69419;SDS011;56612;52.030;113.524;2023-04-06T08:03:55;9.13;;;2.53;;
69419;SDS011;56612;52.030;113.524;2023-04-06T08:07:00;6.15;;;1.20;;
69419;SDS011;56612;52.030;113.524;2023-04-06T08:10:03;13.60;;;2.50;;
69419;SDS011;56612;52.030;113.524;2023-04-06T08:13:11;13.47;;;2.20;;
69419;SDS011;56612;52.030;113.524;2023-04-06T08:16:15;9.98;;;2.95;;
69419;SDS011;56612;52.030;113.524;2023-04-06T08:19:19;10.90;;;3.78;;
69419;SDS011;56612;52.030;113.524;2023-04-06T08:22:23;15.82;;;3.00;;
69419;SDS011;56612;52.030;113.524;2023-04-06T08:25:27;10.87;;;5.73;;
69419;SDS011;56612;52.030;113.524;2023-04-06T08:28:30;10.40;;;3.73;;
69419;SDS011;56612;52.030;113.524;2023-04-06T08:31:35;4.82;;;1.70;;
69419;SDS011;56612;52.030;113.524;2023-04-06T08:34:39;5.95;;;2.00;;
69419;SDS011;56612;52.030;113.524;2023-04-06T08:37:43;7.13;;;1.90;;
69419;SDS011;56612;52.030;113.524;2023-04-06T08:40:47;12.33;;;2.80;;
69419;SDS011;56612;52.030;113.524;2023-04-06T08:47:02;8.57;;;1.90;;
69419;SDS011;56612;52.030;113.524;2023-04-06T08:50:07;7.97;;;2.40;;
69419;SDS011;56612;52.030;113.524;2023-04-06T08:53:14;5.60;;;2.28;;
69419;SDS011;56612;52.030;113.524;2023-04-06T08:56:19;13.73;;;2.27;;
69419;SDS011;56612;52.030;113.524;2023-04-06T08:59:24;14.07;;;1.83;;
69419;SDS011;56612;52.030;113.524;2023-04-06T09:02:29;12.10;;;2.40;;
69419;SDS011;56612;52.030;113.524;2023-04-06T09:05:34;19.48;;;3.30;;
69419;SDS011;56612;52.030;113.524;2023-04-06T09:08:38;11.68;;;2.75;;
69419;SDS011;56612;52.030;113.524;2023-04-06T09:11:47;7.57;;;1.90;;
69419;SDS011;56612;52.030;113.524;2023-04-06T09:14:52;18.50;;;2.77;;
69419;SDS011;56612;52.030;113.524;2023-04-06T09:17:55;16.15;;;2.08;;
69419;SDS011;56612;52.030;113.524;2023-04-06T09:21:05;14.10;;;3.83;;
69419;SDS011;56612;52.030;113.524;2023-04-06T09:24:10;9.20;;;3.03;;
69419;SDS011;56612;52.030;113.524;2023-04-06T09:27:14;20.23;;;3.40;;
69419;SDS011;56612;52.030;113.524;2023-04-06T09:30:17;11.73;;;1.63;;
69419;SDS011;56612;52.030;113.524;2023-04-06T09:33:23;14.63;;;5.20;;
69419;SDS011;56612;52.030;113.524;2023-04-06T09:36:45;12.23;;;3.85;;
69419;SDS011;56612;52.030;113.524;2023-04-06T09:39:49;5.85;;;2.42;;
69419;SDS011;56612;52.030;113.524;2023-04-06T09:42:54;18.17;;;3.47;;
69419;SDS011;56612;52.030;113.524;2023-04-06T09:46:00;13.80;;;2.70;;
69419;SDS011;56612;52.030;113.524;2023-04-06T09:49:06;13.30;;;2.00;;
69419;SDS011;56612;52.030;113.524;2023-04-06T09:52:10;15.52;;;4.35;;
69419;SDS011;56612;52.030;113.524;2023-04-06T09:55:22;17.33;;;5.22;;
69419;SDS011;56612;52.030;113.524;2023-04-06T09:58:32;7.90;;;2.77;;
69419;SDS011;56612;52.030;113.524;2023-04-06T10:01:38;10.03;;;2.77;;
69419;SDS011;56612;52.030;113.524;2023-04-06T10:04:47;11.20;;;2.40;;
69419;SDS011;56612;52.030;113.524;2023-04-06T10:08:14;13.73;;;3.00;;
69419;SDS011;56612;52.030;113.524;2023-04-06T10:11:19;12.13;;;2.97;;
69419;SDS011;56612;52.030;113.524;2023-04-06T10:14:23;5.17;;;1.90;;
69419;SDS011;56612;52.030;113.524;2023-04-06T10:17:26;17.33;;;4.90;;
69419;SDS011;56612;52.030;113.524;2023-04-06T10:20:38;13.10;;;5.50;;
69419;SDS011;56612;52.030;113.524;2023-04-06T10:23:44;21.67;;;7.75;;
69419;SDS011;56612;52.030;113.524;2023-04-06T10:26:57;20.85;;;5.13;;
69419;SDS011;56612;52.030;113.524;2023-04-06T10:30:05;17.20;;;3.40;;
69419;SDS011;56612;52.030;113.524;2023-04-06T10:33:15;14.27;;;4.10;;
69419;SDS011;56612;52.030;113.524;2023-04-06T10:36:27;11.88;;;3.90;;
69419;SDS011;56612;52.030;113.524;2023-04-06T10:39:45;20.75;;;4.85;;
69419;SDS011;56612;52.030;113.524;2023-04-06T10:42:49;16.75;;;3.22;;
69419;SDS011;56612;52.030;113.524;2023-04-06T10:45:57;11.37;;;2.10;;
69419;SDS011;56612;52.030;113.524;2023-04-06T10:49:09;9.27;;;2.77;;
69419;SDS011;56612;52.030;113.524;2023-04-06T10:52:15;13.40;;;2.50;;
69419;SDS011;56612;52.030;113.524;2023-04-06T10:55:19;11.38;;;2.83;;
69419;SDS011;56612;52.030;113.524;2023-04-06T10:58:24;23.95;;;3.03;;
69419;SDS011;56612;52.030;113.524;2023-04-06T11:01:29;15.87;;;3.87;;
69419;SDS011;56612;52.030;113.524;2023-04-06T11:04:33;16.93;;;4.07;;
69419;SDS011;56612;52.030;113.524;2023-04-06T11:07:36;28.80;;;4.45;;
69419;SDS011;56612;52.030;113.524;2023-04-06T11:10:40;12.73;;;3.35;;
69419;SDS011;56612;52.030;113.524;2023-04-06T11:13:54;12.40;;;3.72;;
69419;SDS011;56612;52.030;113.524;2023-04-06T11:16:59;20.70;;;5.60;;
69419;SDS011;56612;52.030;113.524;2023-04-06T11:20:03;18.07;;;5.67;;
69419;SDS011;56612;52.030;113.524;2023-04-06T11:23:21;27.45;;;6.72;;
69419;SDS011;56612;52.030;113.524;2023-04-06T11:26:26;14.60;;;4.80;;
69419;SDS011;56612;52.030;113.524;2023-04-06T11:29:31;18.48;;;4.85;;
69419;SDS011;56612;52.030;113.524;2023-04-06T11:32:42;38.37;;;8.53;;
69419;SDS011;56612;52.030;113.524;2023-04-06T11:35:47;15.70;;;4.43;;
69419;SDS011;56612;52.030;113.524;2023-04-06T11:38:55;22.98;;;4.60;;
69419;SDS011;56612;52.030;113.524;2023-04-06T11:42:00;22.23;;;5.95;;
69419;SDS011;56612;52.030;113.524;2023-04-06T11:45:10;18.77;;;4.95;;
69419;SDS011;56612;52.030;113.524;2023-04-06T11:48:19;39.80;;;6.90;;
69419;SDS011;56612;52.030;113.524;2023-04-06T11:51:26;26.77;;;6.43;;
69419;SDS011;56612;52.030;113.524;2023-04-06T11:54:31;22.67;;;5.72;;
69419;SDS011;56612;52.030;113.524;2023-04-06T11:57:41;20.70;;;4.90;;
69419;SDS011;56612;52.030;113.524;2023-04-06T12:00:45;18.27;;;4.95;;
69419;SDS011;56612;52.030;113.524;2023-04-06T12:03:49;26.57;;;5.87;;
69419;SDS011;56612;52.030;113.524;2023-04-06T12:06:54;26.93;;;6.27;;
69419;SDS011;56612;52.030;113.524;2023-04-06T12:10:00;58.95;;;7.47;;
69419;SDS011;56612;52.030;113.524;2023-04-06T12:13:06;19.05;;;5.65;;
69419;SDS011;56612;52.030;113.524;2023-04-06T12:16:09;42.40;;;8.00;;
69419;SDS011;56612;52.030;113.524;2023-04-06T12:19:13;29.30;;;5.80;;
69419;SDS011;56612;52.030;113.524;2023-04-06T12:22:17;28.63;;;7.00;;
69419;SDS011;56612;52.030;113.524;2023-04-06T12:25:22;31.27;;;7.45;;
69419;SDS011;56612;52.030;113.524;2023-04-06T12:28:26;32.78;;;7.30;;
69419;SDS011;56612;52.030;113.524;2023-04-06T12:31:29;33.38;;;7.30;;
69419;SDS011;56612;52.030;113.524;2023-04-06T12:34:33;26.07;;;6.73;;
69419;SDS011;56612;52.030;113.524;2023-04-06T12:37:36;26.87;;;6.20;;
69419;SDS011;56612;52.030;113.524;2023-04-06T12:40:39;31.38;;;7.43;;
69419;SDS011;56612;52.030;113.524;2023-04-06T12:43:43;25.92;;;6.13;;
69419;SDS011;56612;52.030;113.524;2023-04-06T12:46:47;24.50;;;6.05;;
69419;SDS011;56612;52.030;113.524;2023-04-06T12:49:51;83.37;;;9.77;;
69419;SDS011;56612;52.030;113.524;2023-04-06T12:52:55;24.50;;;6.23;;
69419;SDS011;56612;52.030;113.524;2023-04-06T12:55:59;20.80;;;5.60;;
69419;SDS011;56612;52.030;113.524;2023-04-06T12:59:02;40.20;;;10.05;;
69419;SDS011;56612;52.030;113.524;2023-04-06T13:02:06;23.58;;;8.80;;
69419;SDS011;56612;52.030;113.524;2023-04-06T13:05:09;40.50;;;15.03;;
69419;SDS011;56612;52.030;113.524;2023-04-06T13:08:13;47.73;;;16.23;;
69419;SDS011;56612;52.030;113.524;2023-04-06T13:11:17;59.45;;;19.60;;
69419;SDS011;56612;52.030;113.524;2023-04-06T13:14:23;52.22;;;18.05;;
69419;SDS011;56612;52.030;113.524;2023-04-06T13:17:27;77.60;;;25.48;;
69419;SDS011;56612;52.030;113.524;2023-04-06T13:20:31;78.87;;;24.00;;
69419;SDS011;56612;52.030;113.524;2023-04-06T13:23:35;70.00;;;19.43;;
69419;SDS011;56612;52.030;113.524;2023-04-06T13:26:39;58.22;;;17.08;;
69419;SDS011;56612;52.030;113.524;2023-04-06T13:29:42;40.45;;;12.45;;
69419;SDS011;56612;52.030;113.524;2023-04-06T13:32:46;101.22;;;13.00;;
69419;SDS011;56612;52.030;113.524;2023-04-06T13:35:50;45.30;;;11.13;;
69419;SDS011;56612;52.030;113.524;2023-04-06T13:38:54;29.93;;;10.50;;
69419;SDS011;56612;52.030;113.524;2023-04-06T13:41:57;39.20;;;10.23;;
69419;SDS011;56612;52.030;113.524;2023-04-06T13:45:03;31.75;;;11.07;;
69419;SDS011;56612;52.030;113.524;2023-04-06T13:48:08;33.05;;;8.88;;
69419;SDS011;56612;52.030;113.524;2023-04-06T13:51:12;30.43;;;8.53;;
69419;SDS011;56612;52.030;113.524;2023-04-06T13:54:16;33.27;;;8.20;;
69419;SDS011;56612;52.030;113.524;2023-04-06T13:57:20;39.55;;;7.95;;
69419;SDS011;56612;52.030;113.524;2023-04-06T14:00:24;21.75;;;7.20;;
69419;SDS011;56612;52.030;113.524;2023-04-06T14:03:28;26.00;;;7.45;;
69419;SDS011;56612;52.030;113.524;2023-04-06T14:06:32;25.00;;;7.60;;
69419;SDS011;56612;52.030;113.524;2023-04-06T14:09:35;32.43;;;7.87;;
69419;SDS011;56612;52.030;113.524;2023-04-06T14:12:40;30.80;;;8.45;;
69419;SDS011;56612;52.030;113.524;2023-04-06T14:15:44;31.02;;;7.97;;
69419;SDS011;56612;52.030;113.524;2023-04-06T14:18:48;35.92;;;8.52;;
69419;SDS011;56612;52.030;113.524;2023-04-06T14:21:52;45.27;;;9.30;;
69419;SDS011;56612;52.030;113.524;2023-04-06T14:24:56;37.17;;;8.80;;
69419;SDS011;56612;52.030;113.524;2023-04-06T14:28:00;33.90;;;7.80;;
69419;SDS011;56612;52.030;113.524;2023-04-06T14:31:09;91.85;;;10.52;;
69419;SDS011;56612;52.030;113.524;2023-04-06T14:34:17;38.05;;;7.22;;
69419;SDS011;56612;52.030;113.524;2023-04-06T14:37:20;27.20;;;6.87;;
69419;SDS011;56612;52.030;113.524;2023-04-06T14:40:25;38.73;;;10.23;;
69419;SDS011;56612;52.030;113.524;2023-04-06T14:43:28;25.52;;;6.13;;
69419;SDS011;56612;52.030;113.524;2023-04-06T14:46:32;30.85;;;7.72;;
69419;SDS011;56612;52.030;113.524;2023-04-06T14:49:36;32.65;;;7.53;;
69419;SDS011;56612;52.030;113.524;2023-04-06T14:52:40;30.50;;;7.03;;
69419;SDS011;56612;52.030;113.524;2023-04-06T14:55:43;26.00;;;7.07;;
69419;SDS011;56612;52.030;113.524;2023-04-06T14:58:48;25.55;;;7.30;;
69419;SDS011;56612;52.030;113.524;2023-04-06T15:01:54;29.85;;;6.63;;
69419;SDS011;56612;52.030;113.524;2023-04-06T15:04:58;35.88;;;7.30;;
69419;SDS011;56612;52.030;113.524;2023-04-06T15:08:02;23.47;;;6.97;;
69419;SDS011;56612;52.030;113.524;2023-04-06T15:11:06;52.00;;;8.27;;
69419;SDS011;56612;52.030;113.524;2023-04-06T15:14:11;25.83;;;6.75;;
69419;SDS011;56612;52.030;113.524;2023-04-06T15:17:14;23.42;;;7.35;;
69419;SDS011;56612;52.030;113.524;2023-04-06T15:20:18;22.65;;;6.30;;
69419;SDS011;56612;52.030;113.524;2023-04-06T15:23:21;28.27;;;5.43;;
69419;SDS011;56612;52.030;113.524;2023-04-06T15:26:25;23.57;;;6.03;;
69419;SDS011;56612;52.030;113.524;2023-04-06T15:29:30;31.75;;;5.55;;
69419;SDS011;56612;52.030;113.524;2023-04-06T15:32:34;17.75;;;5.28;;
69419;SDS011;56612;52.030;113.524;2023-04-06T15:35:37;17.50;;;5.32;;
69419;SDS011;56612;52.030;113.524;2023-04-06T15:38:42;25.60;;;5.57;;
69419;SDS011;56612;52.030;113.524;2023-04-06T15:41:45;24.08;;;6.00;;
69419;SDS011;56612;52.030;113.524;2023-04-06T15:44:49;35.38;;;6.18;;
69419;SDS011;56612;52.030;113.524;2023-04-06T15:47:52;21.38;;;4.68;;
69419;SDS011;56612;52.030;113.524;2023-04-06T15:50:56;20.15;;;5.03;;
69419;SDS011;56612;52.030;113.524;2023-04-06T15:54:01;21.50;;;4.80;;
69419;SDS011;56612;52.030;113.524;2023-04-06T15:57:08;29.00;;;7.00;;
69419;SDS011;56612;52.030;113.524;2023-04-06T16:00:11;19.08;;;5.50;;
69419;SDS011;56612;52.030;113.524;2023-04-06T16:03:15;16.70;;;5.03;;
69419;SDS011;56612;52.030;113.524;2023-04-06T16:06:19;16.13;;;4.95;;
69419;SDS011;56612;52.030;113.524;2023-04-06T16:09:23;22.03;;;4.63;;
69419;SDS011;56612;52.030;113.524;2023-04-06T16:12:27;19.05;;;4.57;;
69419;SDS011;56612;52.030;113.524;2023-04-06T16:15:31;23.65;;;4.47;;
69419;SDS011;56612;52.030;113.524;2023-04-06T16:18:34;18.77;;;3.85;;
69419;SDS011;56612;52.030;113.524;2023-04-06T16:21:38;17.38;;;3.88;;
69419;SDS011;56612;52.030;113.524;2023-04-06T16:24:42;14.20;;;4.10;;
69419;SDS011;56612;52.030;113.524;2023-04-06T16:27:46;19.77;;;4.30;;
69419;SDS011;56612;52.030;113.524;2023-04-06T16:30:50;14.38;;;3.95;;
69419;SDS011;56612;52.030;113.524;2023-04-06T16:33:55;20.80;;;5.45;;
69419;SDS011;56612;52.030;113.524;2023-04-06T16:36:59;19.33;;;4.93;;
69419;SDS011;56612;52.030;113.524;2023-04-06T16:40:04;26.07;;;5.73;;
69419;SDS011;56612;52.030;113.524;2023-04-06T16:43:08;27.70;;;6.07;;
69419;SDS011;56612;52.030;113.524;2023-04-06T16:46:12;29.88;;;6.20;;
69419;SDS011;56612;52.030;113.524;2023-04-06T16:49:16;20.58;;;6.47;;
69419;SDS011;56612;52.030;113.524;2023-04-06T16:52:21;19.15;;;4.90;;
69419;SDS011;56612;52.030;113.524;2023-04-06T16:55:25;22.67;;;5.53;;
69419;SDS011;56612;52.030;113.524;2023-04-06T16:58:29;18.00;;;4.78;;
69419;SDS011;56612;52.030;113.524;2023-04-06T17:01:34;17.05;;;5.03;;
69419;SDS011;56612;52.030;113.524;2023-04-06T17:04:38;16.17;;;5.22;;
69419;SDS011;56612;52.030;113.524;2023-04-06T17:07:41;26.48;;;6.25;;
69419;SDS011;56612;52.030;113.524;2023-04-06T17:10:45;20.87;;;7.13;;
69419;SDS011;56612;52.030;113.524;2023-04-06T17:14:04;29.65;;;10.27;;
69419;SDS011;56612;52.030;113.524;2023-04-06T17:17:10;28.95;;;9.40;;
69419;SDS011;56612;52.030;113.524;2023-04-06T17:20:13;20.90;;;6.40;;
69419;SDS011;56612;52.030;113.524;2023-04-06T17:23:17;15.23;;;4.50;;
69419;SDS011;56612;52.030;113.524;2023-04-06T17:26:23;18.33;;;4.30;;
69419;SDS011;56612;52.030;113.524;2023-04-06T17:29:27;19.17;;;4.07;;
69419;SDS011;56612;52.030;113.524;2023-04-06T17:32:31;13.60;;;3.72;;
69419;SDS011;56612;52.030;113.524;2023-04-06T17:35:35;12.07;;;2.70;;
69419;SDS011;56612;52.030;113.524;2023-04-06T17:38:39;6.28;;;1.88;;
69419;SDS011;56612;52.030;113.524;2023-04-06T17:41:45;8.13;;;1.90;;
69419;SDS011;56612;52.030;113.524;2023-04-06T17:44:49;9.43;;;2.28;;
69419;SDS011;56612;52.030;113.524;2023-04-06T17:47:54;9.18;;;2.28;;
69419;SDS011;56612;52.030;113.524;2023-04-06T17:50:58;10.38;;;3.28;;
69419;SDS011;56612;52.030;113.524;2023-04-06T17:54:01;22.55;;;4.30;;
69419;SDS011;56612;52.030;113.524;2023-04-06T17:57:04;24.50;;;7.37;;
69419;SDS011;56612;52.030;113.524;2023-04-06T18:00:09;11.38;;;4.13;;